Time;durP1;ratioP1;P1;durP2;ratioP2;P2;SDS_P1;SDS_P2;PMS_P1;PMS_P2;Temp;Humidity;BMP_temperature;BMP_pressure;BME280_temperature;BME280_humidity;BME280_pressure;Samples;Min_cycle;Max_cycle;Signal;HPM_P1;HPM_P2
2023/09/29 00:02:18;;;;;;;;;;;19.40;56.40;;;;;;5038917;28;92557;-61
2023/09/29 00:04:43;;;;;;;;;;;19.40;56.30;;;;;;5039946;27;92432;-61
2023/09/29 00:07:10;;;;;;;;;;;19.40;56.40;;;;;;5040678;28;92649;-61
2023/09/29 00:09:36;;;;;;;;;;;19.40;56.40;;;;;;5039840;27;93557;-61
2023/09/29 00:12:01;;;;;;;;;;;19.40;56.40;;;;;;5039569;28;92522;-61
2023/09/29 00:14:27;;;;;;;;;;;19.40;56.40;;;;;;5040848;28;92993;-61
2023/09/29 00:16:52;;;;;;;;;;;19.30;56.30;;;;;;5039208;27;92870;-61
2023/09/29 00:19:18;;;;;;;;;;;19.40;56.40;;;;;;5041956;28;92649;-62
2023/09/29 00:21:43;;;;;;;;;;;19.40;56.30;;;;;;5038762;28;94005;-62
2023/09/29 00:24:08;;;;;;;;;;;19.40;56.30;;;;;;5039164;28;93583;-61
2023/09/29 00:26:34;;;;;;;;;;;19.30;56.30;;;;;;5039689;28;93845;-61
2023/09/29 00:29:01;;;;;;;;;;;19.30;56.90;;;;;;5039638;27;93524;-61
2023/09/29 00:31:27;;;;;;;;;;;19.40;56.40;;;;;;5040684;27;92230;-60
2023/09/29 00:33:52;;;;;;;;;;;19.30;56.30;;;;;;5038706;27;92541;-62
2023/09/29 00:36:18;;;;;;;;;;;19.30;56.30;;;;;;5038612;28;94214;-61
2023/09/29 00:38:44;;;;;;;;;;;19.30;56.30;;;;;;5039797;28;92216;-61
2023/09/29 00:41:09;;;;;;;;;;;19.30;56.30;;;;;;5041847;27;93375;-62
2023/09/29 00:43:35;;;;;;;;;;;19.30;56.40;;;;;;5040219;28;92179;-61
2023/09/29 00:46:03;;;;;;;;;;;19.30;56.30;;;;;;5039225;28;92705;-61
2023/09/29 00:48:33;;;;;;;;;;;19.30;56.40;;;;;;5038759;27;94167;-62
2023/09/29 00:50:58;;;;;;;;;;;19.30;56.40;;;;;;5036333;28;92146;-61
2023/09/29 00:53:24;;;;;;;;;;;19.20;56.30;;;;;;5038910;27;92244;-62
2023/09/29 00:55:50;;;;;;;;;;;19.20;56.30;;;;;;5037588;28;92435;-63
2023/09/29 00:58:17;;;;;;;;;;;19.30;56.30;;;;;;5039833;27;92615;-61
2023/09/29 01:00:42;;;;;;;;;;;19.20;56.30;;;;;;5040358;28;92667;-61
2023/09/29 01:03:10;;;;;;;;;;;19.20;56.30;;;;;;5040358;27;92973;-62
2023/09/29 01:05:41;;;;;;;;;;;19.20;56.30;;;;;;5039229;27;92889;-61
2023/09/29 01:08:12;;;;;;;;;;;19.20;56.30;;;;;;5039676;27;93389;-61
2023/09/29 01:10:38;;;;;;;;;;;19.20;56.40;;;;;;5038310;27;92325;-62
2023/09/29 01:13:04;;;;;;;;;;;19.20;56.40;;;;;;5038031;28;94182;-62
2023/09/29 01:15:32;;;;;;;;;;;19.20;56.40;;;;;;5039590;27;93189;-62
2023/09/29 01:17:58;;;;;;;;;;;19.10;56.30;;;;;;5038421;27;92188;-59
2023/09/29 01:20:28;;;;;;;;;;;19.10;56.40;;;;;;5038293;28;92681;-61
2023/09/29 01:23:01;;;;;;;;;;;19.10;56.40;;;;;;5039383;27;93554;-61
2023/09/29 01:25:27;;;;;;;;;;;19.10;56.40;;;;;;5042597;28;92197;-62
2023/09/29 01:27:53;;;;;;;;;;;19.10;56.40;;;;;;5038119;27;93422;-62
2023/09/29 01:30:18;;;;;;;;;;;19.10;56.40;;;;;;5039270;27;91718;-61
2023/09/29 01:32:47;;;;;;;;;;;19.10;56.40;;;;;;5039836;28;92426;-61
2023/09/29 01:35:16;;;;;;;;;;;19.10;56.40;;;;;;5039136;27;93305;-61
2023/09/29 01:37:46;;;;;;;;;;;19.10;56.40;;;;;;5036715;27;93336;-61
2023/09/29 01:40:12;;;;;;;;;;;19.00;56.30;;;;;;5038018;27;93914;-61
2023/09/29 01:42:37;;;;;;;;;;;19.00;56.40;;;;;;5039229;27;93149;-61
2023/09/29 01:45:07;;;;;;;;;;;19.10;56.40;;;;;;5038633;28;92277;-61
2023/09/29 01:47:35;;;;;;;;;;;19.00;56.30;;;;;;5039938;28;92373;-61
2023/09/29 01:50:01;;;;;;;;;;;19.00;56.30;;;;;;5039202;27;92279;-61
2023/09/29 01:52:26;;;;;;;;;;;19.00;56.30;;;;;;5039534;28;93035;-61
2023/09/29 01:54:51;;;;;;;;;;;19.00;56.40;;;;;;5039609;28;91860;-61
2023/09/29 01:57:17;;;;;;;;;;;19.00;56.40;;;;;;5036397;28;92189;-61
2023/09/29 01:59:43;;;;;;;;;;;19.00;56.40;;;;;;5038465;28;93004;-61
2023/09/29 02:02:08;;;;;;;;;;;19.00;56.40;;;;;;5037630;27;94111;-61
2023/09/29 02:04:34;;;;;;;;;;;19.00;56.40;;;;;;5039501;28;92186;-61
2023/09/29 02:07:00;;;;;;;;;;;18.90;56.30;;;;;;5037744;28;92910;-61
2023/09/29 02:09:26;;;;;;;;;;;18.90;57.00;;;;;;5040362;28;93530;-61
2023/09/29 02:11:54;;;;;;;;;;;19.00;56.40;;;;;;5038652;28;93013;-62
2023/09/29 02:14:20;;;;;;;;;;;18.90;56.30;;;;;;5038392;27;93223;-61
2023/09/29 02:16:48;;;;;;;;;;;18.90;56.40;;;;;;5039128;28;92231;-61
2023/09/29 02:19:14;;;;;;;;;;;18.90;56.40;;;;;;5038578;27;92399;-60
2023/09/29 02:21:41;;;;;;;;;;;18.90;56.40;;;;;;5037283;27;92984;-61
2023/09/29 02:24:07;;;;;;;;;;;18.90;56.40;;;;;;5039123;27;92239;-61
2023/09/29 02:26:34;;;;;;;;;;;18.80;56.40;;;;;;5038141;27;92973;-61
2023/09/29 02:29:03;;;;;;;;;;;18.80;56.40;;;;;;5041561;27;93174;-61
2023/09/29 02:31:29;;;;;;;;;;;18.80;56.30;;;;;;5037808;27;92567;-60
2023/09/29 02:33:54;;;;;;;;;;;18.80;56.40;;;;;;5037299;28;93373;-61
2023/09/29 02:36:20;;;;;;;;;;;18.80;56.40;;;;;;5037372;28;92147;-61
2023/09/29 02:38:45;;;;;;;;;;;18.80;56.40;;;;;;5039065;28;92426;-61
2023/09/29 02:41:11;;;;;;;;;;;18.80;56.40;;;;;;5038774;27;93140;-62
2023/09/29 02:43:37;;;;;;;;;;;18.80;56.40;;;;;;5042331;27;91370;-62
2023/09/29 02:46:03;;;;;;;;;;;18.80;56.40;;;;;;5040080;27;92851;-61
2023/09/29 02:48:28;;;;;;;;;;;18.80;56.40;;;;;;5041009;28;93081;-61
2023/09/29 02:50:54;;;;;;;;;;;18.80;56.40;;;;;;5044678;28;93237;-61
2023/09/29 02:53:21;;;;;;;;;;;18.80;56.40;;;;;;5037917;28;93287;-61
2023/09/29 02:55:47;;;;;;;;;;;18.70;56.40;;;;;;5042429;27;92172;-62
2023/09/29 02:58:13;;;;;;;;;;;18.70;56.30;;;;;;5039923;27;92853;-61
2023/09/29 03:00:41;;;;;;;;;;;18.70;56.30;;;;;;5038277;28;94554;-61
2023/09/29 03:03:09;;;;;;;;;;;18.70;56.40;;;;;;5042002;28;92528;-61
2023/09/29 03:05:34;;;;;;;;;;;18.70;56.40;;;;;;5041976;27;92556;-62
2023/09/29 03:08:00;;;;;;;;;;;18.70;56.40;;;;;;5042081;27;92552;-61
2023/09/29 03:10:27;;;;;;;;;;;18.70;56.40;;;;;;5042110;28;92148;-62
2023/09/29 03:12:56;;;;;;;;;;;18.70;56.40;;;;;;5042584;28;95640;-61
2023/09/29 03:15:22;;;;;;;;;;;18.70;56.50;;;;;;5039703;27;93084;-60
2023/09/29 03:17:47;;;;;;;;;;;18.70;56.40;;;;;;5039900;27;93831;-60
2023/09/29 03:20:14;;;;;;;;;;;18.60;56.30;;;;;;5041409;28;93424;-62
2023/09/29 03:22:40;;;;;;;;;;;18.70;56.40;;;;;;5042050;27;92761;-61
2023/09/29 03:25:06;;;;;;;;;;;18.60;56.40;;;;;;5041804;28;92827;-61
2023/09/29 03:27:32;;;;;;;;;;;18.60;56.40;;;;;;5040660;27;93557;-62
2023/09/29 03:30:00;;;;;;;;;;;18.60;56.50;;;;;;5041805;28;92142;-61
2023/09/29 03:32:26;;;;;;;;;;;18.60;56.50;;;;;;5040169;27;92603;-61
2023/09/29 03:34:52;;;;;;;;;;;18.60;56.40;;;;;;5043164;27;94728;-61
2023/09/29 03:37:18;;;;;;;;;;;18.60;56.40;;;;;;5041746;27;93041;-61
2023/09/29 03:39:44;;;;;;;;;;;18.60;56.50;;;;;;5040323;27;94393;-61
2023/09/29 03:42:09;;;;;;;;;;;18.60;56.40;;;;;;5040942;28;92178;-61
2023/09/29 03:44:35;;;;;;;;;;;18.60;56.40;;;;;;5041597;28;93028;-62
2023/09/29 03:47:00;;;;;;;;;;;18.60;55.90;;;;;;5040983;28;93439;-60
2023/09/29 03:49:26;;;;;;;;;;;18.50;56.40;;;;;;5041598;27;92196;-61
2023/09/29 03:51:52;;;;;;;;;;;18.50;56.40;;;;;;5041191;28;92715;-60
2023/09/29 03:54:18;;;;;;;;;;;18.50;56.50;;;;;;5034464;27;93191;-61
2023/09/29 03:56:44;;;;;;;;;;;18.50;56.40;;;;;;5044037;28;91385;-62
2023/09/29 03:59:10;;;;;;;;;;;18.50;56.50;;;;;;5038029;28;93767;-61
2023/09/29 04:01:36;;;;;;;;;;;18.50;56.50;;;;;;5040985;28;92241;-61
2023/09/29 04:04:02;;;;;;;;;;;18.50;56.50;;;;;;5040738;28;93061;-61
2023/09/29 04:06:28;;;;;;;;;;;18.50;56.40;;;;;;5040661;27;93202;-61
2023/09/29 04:08:55;;;;;;;;;;;18.40;56.40;;;;;;5041126;27;92297;-61
2023/09/29 04:11:21;;;;;;;;;;;18.40;56.40;;;;;;5041615;27;92725;-60
2023/09/29 04:13:46;;;;;;;;;;;18.40;56.50;;;;;;5040385;27;92960;-61
2023/09/29 04:16:14;;;;;;;;;;;18.40;56.50;;;;;;5040893;28;92227;-60
2023/09/29 04:18:39;;;;;;;;;;;18.40;56.50;;;;;;5043465;27;92522;-60
2023/09/29 04:21:09;;;;;;;;;;;18.40;56.60;;;;;;5041296;27;91825;-61
2023/09/29 04:23:35;;;;;;;;;;;18.40;56.50;;;;;;5035810;27;92386;-61
2023/09/29 04:26:00;;;;;;;;;;;18.40;56.50;;;;;;5038663;27;93399;-60
2023/09/29 04:28:26;;;;;;;;;;;18.40;56.50;;;;;;5039648;28;93514;-61
2023/09/29 04:30:51;;;;;;;;;;;18.40;56.50;;;;;;5040950;28;93488;-60
2023/09/29 04:33:18;;;;;;;;;;;18.30;56.50;;;;;;5040361;28;93281;-61
2023/09/29 04:35:44;;;;;;;;;;;18.30;56.50;;;;;;5040764;28;92384;-61
2023/09/29 04:38:09;;;;;;;;;;;18.30;56.50;;;;;;5043241;27;92196;-61
2023/09/29 04:40:35;;;;;;;;;;;18.30;56.50;;;;;;5040622;27;92208;-60
2023/09/29 04:43:02;;;;;;;;;;;18.30;56.50;;;;;;5040955;27;92945;-61
2023/09/29 04:45:28;;;;;;;;;;;18.30;56.50;;;;;;5040485;27;92416;-61
2023/09/29 04:47:54;;;;;;;;;;;18.30;56.50;;;;;;5040582;27;92593;-61
2023/09/29 04:50:20;;;;;;;;;;;18.30;56.50;;;;;;5040089;28;92593;-61
2023/09/29 04:52:45;;;;;;;;;;;18.30;56.50;;;;;;5038069;28;94726;-60
2023/09/29 04:55:11;;;;;;;;;;;18.30;56.50;;;;;;5040302;28;92236;-60
2023/09/29 04:57:36;;;;;;;;;;;18.20;56.50;;;;;;5034098;27;93448;-60
2023/09/29 05:00:03;;;;;;;;;;;18.20;56.50;;;;;;5039758;27;95489;-61
2023/09/29 05:02:30;;;;;;;;;;;18.20;56.50;;;;;;5039617;28;92084;-61
2023/09/29 05:04:56;;;;;;;;;;;18.30;56.50;;;;;;5038063;27;93032;-60
2023/09/29 05:07:21;;;;;;;;;;;18.20;56.50;;;;;;5036280;27;92362;-61
2023/09/29 05:09:47;;;;;;;;;;;18.20;56.50;;;;;;5037542;28;92832;-60
2023/09/29 05:12:13;;;;;;;;;;;18.20;57.10;;;;;;5038954;27;93182;-61
2023/09/29 05:14:38;;;;;;;;;;;18.20;56.60;;;;;;5041092;27;92175;-61
2023/09/29 05:17:04;;;;;;;;;;;18.20;56.60;;;;;;5037866;27;93183;-60
2023/09/29 05:19:29;;;;;;;;;;;18.20;56.50;;;;;;5038752;28;93862;-60
2023/09/29 05:21:55;;;;;;;;;;;18.20;56.50;;;;;;5043115;28;92323;-61
2023/09/29 05:24:20;;;;;;;;;;;18.20;56.50;;;;;;5034062;27;93138;-60
2023/09/29 05:26:46;;;;;;;;;;;18.20;56.60;;;;;;5035078;27;92162;-60
2023/09/29 05:29:11;;;;;;;;;;;18.10;56.60;;;;;;5038877;28;92709;-60
2023/09/29 05:31:37;;;;;;;;;;;18.20;56.60;;;;;;5037270;27;96392;-60
2023/09/29 05:34:02;;;;;;;;;;;18.20;56.10;;;;;;5038822;27;92220;-60
2023/09/29 05:36:29;;;;;;;;;;;18.10;56.00;;;;;;5035359;27;92208;-61
2023/09/29 05:38:55;;;;;;;;;;;18.10;56.60;;;;;;5039171;27;93221;-61
2023/09/29 05:41:20;;;;;;;;;;;18.10;56.60;;;;;;5037565;27;93566;-60
2023/09/29 05:43:46;;;;;;;;;;;18.10;56.60;;;;;;5039459;27;93507;-60
2023/09/29 05:46:11;;;;;;;;;;;18.10;56.60;;;;;;5035413;27;92451;-61
2023/09/29 05:48:37;;;;;;;;;;;18.10;56.60;;;;;;5039652;28;92651;-61
2023/09/29 05:51:03;;;;;;;;;;;18.10;56.60;;;;;;5037220;27;92427;-61
2023/09/29 05:53:28;;;;;;;;;;;18.10;56.70;;;;;;5037204;27;92798;-60
2023/09/29 05:55:54;;;;;;;;;;;18.10;56.70;;;;;;5038530;28;92013;-60
2023/09/29 05:58:20;;;;;;;;;;;18.10;56.70;;;;;;5039323;27;92362;-61
2023/09/29 06:00:45;;;;;;;;;;;18.10;56.60;;;;;;5035504;27;93996;-61
2023/09/29 06:03:11;;;;;;;;;;;18.10;56.70;;;;;;5035485;27;92909;-60
2023/09/29 06:05:37;;;;;;;;;;;18.00;56.70;;;;;;5040989;28;94212;-62
2023/09/29 06:08:02;;;;;;;;;;;18.00;56.20;;;;;;5038653;28;93716;-59
2023/09/29 06:10:28;;;;;;;;;;;18.10;56.70;;;;;;5036628;27;93176;-60
2023/09/29 06:12:53;;;;;;;;;;;18.00;56.60;;;;;;5037000;27;92160;-60
2023/09/29 06:15:19;;;;;;;;;;;18.10;56.70;;;;;;5039089;27;92557;-60
2023/09/29 06:17:45;;;;;;;;;;;18.00;56.60;;;;;;5039793;27;93247;-60
2023/09/29 06:20:11;;;;;;;;;;;18.00;56.70;;;;;;5037346;27;92749;-60
2023/09/29 06:22:36;;;;;;;;;;;18.00;56.80;;;;;;5035219;27;92745;-60
2023/09/29 06:25:02;;;;;;;;;;;18.10;56.80;;;;;;5038291;28;93206;-61
2023/09/29 06:27:27;;;;;;;;;;;18.00;56.70;;;;;;5039847;27;92656;-60
2023/09/29 06:29:53;;;;;;;;;;;18.10;56.80;;;;;;5034983;27;94316;-60
2023/09/29 06:32:19;;;;;;;;;;;18.00;56.70;;;;;;5033453;27;92155;-60
2023/09/29 06:34:44;;;;;;;;;;;18.10;56.70;;;;;;5038308;27;92877;-60
2023/09/29 06:37:10;;;;;;;;;;;18.10;56.60;;;;;;5036456;27;93335;-61
2023/09/29 06:39:36;;;;;;;;;;;18.10;56.70;;;;;;5038962;27;92894;-60
2023/09/29 06:42:02;;;;;;;;;;;18.10;56.50;;;;;;5037281;28;92210;-60
2023/09/29 06:44:28;;;;;;;;;;;18.10;56.60;;;;;;5037160;28;93339;-60
2023/09/29 06:46:53;;;;;;;;;;;18.10;56.70;;;;;;5039294;27;91472;-61
2023/09/29 06:49:19;;;;;;;;;;;18.10;56.70;;;;;;5036163;27;93550;-60
2023/09/29 06:51:44;;;;;;;;;;;18.00;56.70;;;;;;5038566;28;92073;-60
2023/09/29 06:54:10;;;;;;;;;;;18.00;56.70;;;;;;5037355;27;93167;-60
2023/09/29 06:56:36;;;;;;;;;;;18.00;56.80;;;;;;5035304;27;93533;-61
2023/09/29 06:59:02;;;;;;;;;;;18.00;56.70;;;;;;5036664;27;92209;-61
2023/09/29 07:01:27;;;;;;;;;;;18.00;56.70;;;;;;5037605;28;92670;-61
2023/09/29 07:03:53;;;;;;;;;;;18.00;56.70;;;;;;5036432;28;93575;-60
2023/09/29 07:06:22;;;;;;;;;;;18.00;56.70;;;;;;5036222;27;92225;-61
2023/09/29 07:08:48;;;;;;;;;;;18.00;56.80;;;;;;5037856;27;92707;-61
2023/09/29 07:11:13;;;;;;;;;;;18.00;57.10;;;;;;5038639;28;92296;-61
2023/09/29 07:13:40;;;;;;;;;;;18.00;57.60;;;;;;5033499;27;92167;-61
2023/09/29 07:16:06;;;;;;;;;;;17.90;57.00;;;;;;5035377;27;93098;-61
2023/09/29 07:18:31;;;;;;;;;;;17.90;57.10;;;;;;5036107;28;93129;-61
2023/09/29 07:20:57;;;;;;;;;;;17.90;57.30;;;;;;5038009;27;93429;-60
2023/09/29 07:23:23;;;;;;;;;;;17.90;57.20;;;;;;5035193;27;93838;-60
2023/09/29 07:25:54;;;;;;;;;;;17.90;57.10;;;;;;5033780;27;92525;-61
2023/09/29 07:28:21;;;;;;;;;;;17.90;57.00;;;;;;5034330;27;92417;-60
2023/09/29 07:30:47;;;;;;;;;;;17.90;57.10;;;;;;5043071;28;93769;-60
2023/09/29 07:33:12;;;;;;;;;;;17.90;57.10;;;;;;5039614;27;93901;-59
2023/09/29 07:35:39;;;;;;;;;;;17.90;57.10;;;;;;5039056;27;92745;-60
2023/09/29 07:38:05;;;;;;;;;;;17.90;57.10;;;;;;5041688;28;92180;-60
2023/09/29 07:40:32;;;;;;;;;;;17.90;57.10;;;;;;5039913;27;93122;-60
2023/09/29 07:42:57;;;;;;;;;;;17.90;57.20;;;;;;5037514;27;94318;-60
2023/09/29 07:45:23;;;;;;;;;;;17.90;57.10;;;;;;5036133;28;94486;-60
2023/09/29 07:47:49;;;;;;;;;;;17.90;57.20;;;;;;5041351;28;92418;-60
2023/09/29 07:50:14;;;;;;;;;;;17.90;57.30;;;;;;5038378;27;92332;-61
2023/09/29 07:52:40;;;;;;;;;;;17.90;57.30;;;;;;5040022;27;92569;-61
2023/09/29 07:55:06;;;;;;;;;;;17.90;57.20;;;;;;5039398;28;92983;-60
2023/09/29 07:57:32;;;;;;;;;;;17.90;57.30;;;;;;5040756;28;92079;-61
2023/09/29 07:59:57;;;;;;;;;;;17.90;57.20;;;;;;5038720;27;93200;-60
2023/09/29 08:02:23;;;;;;;;;;;17.90;57.80;;;;;;5038347;27;93880;-60
2023/09/29 08:04:49;;;;;;;;;;;17.90;57.20;;;;;;5039550;28;92125;-59
2023/09/29 08:07:15;;;;;;;;;;;17.90;57.30;;;;;;5039490;28;93075;-60
2023/09/29 08:09:40;;;;;;;;;;;17.80;57.30;;;;;;5038262;27;93155;-58
2023/09/29 08:12:06;;;;;;;;;;;17.90;57.10;;;;;;5039505;27;92360;-60
2023/09/29 08:14:31;;;;;;;;;;;17.90;57.10;;;;;;5042892;28;92565;-60
2023/09/29 08:16:57;;;;;;;;;;;17.90;57.10;;;;;;5039687;27;92253;-60
2023/09/29 08:19:22;;;;;;;;;;;17.90;56.90;;;;;;5038319;27;92970;-59
2023/09/29 08:21:49;;;;;;;;;;;17.90;56.80;;;;;;5036789;27;93450;-60
2023/09/29 08:24:15;;;;;;;;;;;17.90;57.30;;;;;;5041097;27;91465;-60
2023/09/29 08:26:41;;;;;;;;;;;17.90;56.70;;;;;;5039081;27;93242;-60
2023/09/29 08:29:09;;;;;;;;;;;17.90;56.60;;;;;;5036052;27;96479;-61
2023/09/29 08:31:35;;;;;;;;;;;17.90;56.60;;;;;;5037944;27;93180;-60
2023/09/29 08:34:01;;;;;;;;;;;17.90;56.40;;;;;;5039335;28;93881;-60
2023/09/29 08:36:26;;;;;;;;;;;17.90;56.40;;;;;;5041171;27;92870;-59
2023/09/29 08:38:52;;;;;;;;;;;17.90;56.30;;;;;;5036725;27;92658;-61
2023/09/29 08:41:21;;;;;;;;;;;18.00;56.30;;;;;;5039114;27;93199;-60
2023/09/29 08:43:46;;;;;;;;;;;17.90;56.10;;;;;;5039523;27;93119;-60
2023/09/29 08:46:14;;;;;;;;;;;18.00;55.80;;;;;;5038426;27;92559;-61
2023/09/29 08:48:42;;;;;;;;;;;18.00;55.70;;;;;;5040722;27;92518;-60
2023/09/29 08:51:07;;;;;;;;;;;18.00;55.60;;;;;;5040265;27;92077;-60
2023/09/29 08:53:33;;;;;;;;;;;18.00;55.60;;;;;;5038577;27;93089;-61
2023/09/29 08:56:04;;;;;;;;;;;18.00;55.50;;;;;;5039748;27;94317;-60
2023/09/29 08:58:32;;;;;;;;;;;18.00;55.40;;;;;;5039674;27;93969;-60
2023/09/29 09:00:57;;;;;;;;;;;18.00;55.10;;;;;;5038928;28;93243;-60
2023/09/29 09:03:23;;;;;;;;;;;18.00;55.20;;;;;;5038108;27;92234;-60
2023/09/29 09:05:49;;;;;;;;;;;18.00;55.00;;;;;;5036694;27;93808;-60
2023/09/29 09:08:15;;;;;;;;;;;18.00;55.00;;;;;;5037648;28;92982;-60
2023/09/29 09:10:41;;;;;;;;;;;17.90;54.90;;;;;;5039905;28;92059;-60
2023/09/29 09:13:07;;;;;;;;;;;17.90;54.70;;;;;;5038817;27;93791;-61
2023/09/29 09:15:32;;;;;;;;;;;17.90;54.80;;;;;;5035083;27;93828;-60
2023/09/29 09:17:58;;;;;;;;;;;17.90;54.90;;;;;;5038467;28;92269;-60
2023/09/29 09:20:24;;;;;;;;;;;17.90;54.40;;;;;;5035237;27;94136;-60
2023/09/29 09:22:57;;;;;;;;;;;17.90;54.70;;;;;;5040789;27;92387;-60
2023/09/29 09:25:35;;;;;;;;;;;17.90;54.60;;;;;;5036075;27;93950;-60
2023/09/29 09:28:01;;;;;;;;;;;17.90;54.60;;;;;;5036662;28;93615;-60
2023/09/29 09:30:27;;;;;;;;;;;17.90;54.40;;;;;;5038684;27;92207;-60
2023/09/29 09:32:53;;;;;;;;;;;17.90;54.50;;;;;;5037229;28;92603;-60
2023/09/29 09:35:26;;;;;;;;;;;17.90;54.40;;;;;;5034135;28;92899;-60
2023/09/29 09:37:51;;;;;;;;;;;17.90;54.40;;;;;;5036761;28;91413;-60
2023/09/29 09:40:18;;;;;;;;;;;17.90;54.30;;;;;;5043783;27;92267;-60
2023/09/29 09:42:45;;;;;;;;;;;17.90;54.30;;;;;;5039087;27;92230;-60
2023/09/29 09:45:11;;;;;;;;;;;18.00;54.30;;;;;;5034655;28;93061;-60
2023/09/29 09:47:38;;;;;;;;;;;18.00;54.40;;;;;;5039007;27;93024;-60
2023/09/29 09:50:05;;;;;;;;;;;18.00;54.10;;;;;;5036182;27;92192;-60
2023/09/29 09:52:31;;;;;;;;;;;18.00;53.90;;;;;;5034009;27;95453;-60
2023/09/29 09:54:58;;;;;;;;;;;18.10;54.00;;;;;;5038433;27;93590;-60
2023/09/29 09:57:30;;;;;;;;;;;18.10;53.60;;;;;;5038735;27;92706;-59
2023/09/29 09:59:57;;;;;;;;;;;18.10;53.60;;;;;;5034479;27;94463;-60
2023/09/29 10:02:23;;;;;;;;;;;18.10;53.60;;;;;;5038598;27;92638;-60
2023/09/29 10:04:49;;;;;;;;;;;18.10;53.30;;;;;;5039032;28;92445;-60
2023/09/29 10:07:15;;;;;;;;;;;18.10;53.30;;;;;;5036958;27;93492;-60
2023/09/29 10:09:44;;;;;;;;;;;18.10;52.90;;;;;;5036143;27;93196;-60
2023/09/29 10:12:23;;;;;;;;;;;18.10;53.30;;;;;;5036866;28;93800;-60
2023/09/29 10:14:48;;;;;;;;;;;18.20;53.30;;;;;;5035639;28;93185;-60
2023/09/29 10:17:14;;;;;;;;;;;18.20;53.20;;;;;;5037054;27;92303;-60
2023/09/29 10:19:39;;;;;;;;;;;18.20;53.00;;;;;;5035913;27;92252;-60
2023/09/29 10:22:08;;;;;;;;;;;18.20;53.00;;;;;;5036734;28;93263;-60
2023/09/29 10:24:34;;;;;;;;;;;18.20;53.20;;;;;;5037987;28;92126;-60
2023/09/29 10:27:04;;;;;;;;;;;18.20;53.00;;;;;;5037691;27;95371;-60
2023/09/29 10:29:32;;;;;;;;;;;18.20;53.00;;;;;;5036232;27;92714;-60
2023/09/29 10:32:11;;;;;;;;;;;18.30;53.20;;;;;;5037004;28;95806;-60
2023/09/29 10:34:36;;;;;;;;;;;18.20;53.00;;;;;;5033269;27;94934;-60
2023/09/29 10:37:02;;;;;;;;;;;18.20;53.00;;;;;;5038421;27;93794;-60
2023/09/29 10:39:29;;;;;;;;;;;18.30;53.00;;;;;;5035421;27;92870;-61
2023/09/29 10:41:58;;;;;;;;;;;18.30;53.00;;;;;;5037723;28;93540;-60
2023/09/29 10:44:27;;;;;;;;;;;18.30;53.00;;;;;;5040270;27;92198;-60
2023/09/29 10:46:53;;;;;;;;;;;18.30;52.70;;;;;;5035579;27;93178;-60
2023/09/29 10:49:18;;;;;;;;;;;18.30;52.60;;;;;;5039319;27;92147;-61
2023/09/29 10:51:45;;;;;;;;;;;18.20;53.10;;;;;;5037129;28;95652;-60
2023/09/29 10:54:11;;;;;;;;;;;18.30;52.80;;;;;;5035379;27;93123;-58
2023/09/29 10:56:37;;;;;;;;;;;18.30;52.60;;;;;;5036464;28;92234;-60
2023/09/29 10:59:09;;;;;;;;;;;18.30;52.80;;;;;;5036937;27;93436;-60
2023/09/29 11:01:35;;;;;;;;;;;18.30;52.80;;;;;;5037007;28;93538;-60
2023/09/29 11:04:01;;;;;;;;;;;18.30;52.70;;;;;;5039101;27;92233;-60
2023/09/29 11:06:27;;;;;;;;;;;18.30;52.60;;;;;;5041738;27;92755;-59
2023/09/29 11:08:54;;;;;;;;;;;18.30;52.60;;;;;;5041323;28;92232;-60
2023/09/29 11:11:19;;;;;;;;;;;18.30;52.70;;;;;;5038228;27;92919;-60
2023/09/29 11:13:54;;;;;;;;;;;18.30;52.70;;;;;;5036947;27;95929;-60
2023/09/29 11:16:24;;;;;;;;;;;18.30;52.80;;;;;;5040285;27;92751;-60
2023/09/29 11:18:50;;;;;;;;;;;18.40;52.70;;;;;;5041463;28;92897;-60
2023/09/29 11:21:19;;;;;;;;;;;18.40;52.40;;;;;;5036331;27;93297;-60
2023/09/29 11:23:48;;;;;;;;;;;18.50;52.50;;;;;;5039256;27;93722;-60
2023/09/29 11:26:15;;;;;;;;;;;18.50;52.40;;;;;;5035243;28;93947;-60
2023/09/29 11:28:41;;;;;;;;;;;18.50;52.20;;;;;;5044355;28;93554;-60
2023/09/29 11:31:12;;;;;;;;;;;18.50;52.10;;;;;;5040072;27;92498;-60
2023/09/29 11:33:41;;;;;;;;;;;18.50;52.30;;;;;;5037669;27;93255;-60
2023/09/29 11:36:12;;;;;;;;;;;18.50;52.10;;;;;;5040185;28;93679;-60
2023/09/29 11:38:38;;;;;;;;;;;18.50;52.10;;;;;;5041654;28;92751;-60
2023/09/29 11:41:05;;;;;;;;;;;18.50;52.20;;;;;;5039341;27;91530;-59
2023/09/29 11:43:34;;;;;;;;;;;18.50;51.90;;;;;;5039453;27;93236;-60
2023/09/29 11:46:00;;;;;;;;;;;18.50;51.90;;;;;;5041514;28;92536;-59
2023/09/29 11:48:26;;;;;;;;;;;18.50;51.70;;;;;;5039460;27;95018;-60
2023/09/29 11:50:53;;;;;;;;;;;18.50;51.90;;;;;;5042148;27;92222;-60
2023/09/29 11:53:19;;;;;;;;;;;18.50;51.80;;;;;;5038506;27;93678;-60
2023/09/29 11:55:46;;;;;;;;;;;18.50;51.60;;;;;;5040393;27;92578;-60
2023/09/29 11:58:11;;;;;;;;;;;18.50;51.40;;;;;;5040563;27;92984;-59
2023/09/29 12:00:37;;;;;;;;;;;18.60;51.90;;;;;;5041159;27;93240;-60
2023/09/29 12:03:05;;;;;;;;;;;18.50;51.50;;;;;;5039668;27;92279;-60
2023/09/29 12:05:34;;;;;;;;;;;18.60;51.50;;;;;;5041576;28;92684;-60
2023/09/29 12:08:00;;;;;;;;;;;18.60;51.50;;;;;;5038306;27;93320;-60
2023/09/29 12:10:25;;;;;;;;;;;18.60;51.40;;;;;;5039184;27;92117;-60
2023/09/29 12:12:51;;;;;;;;;;;18.60;51.20;;;;;;5040438;27;93619;-60
2023/09/29 12:15:18;;;;;;;;;;;18.60;51.10;;;;;;5039709;27;92108;-60
2023/09/29 12:17:44;;;;;;;;;;;18.70;51.10;;;;;;5039557;27;92846;-58
2023/09/29 12:20:13;;;;;;;;;;;18.70;51.20;;;;;;5040003;27;93216;-60
2023/09/29 12:22:43;;;;;;;;;;;18.70;50.80;;;;;;5039713;27;92325;-60
2023/09/29 12:25:09;;;;;;;;;;;18.70;51.10;;;;;;5040656;27;92102;-60
2023/09/29 12:27:34;;;;;;;;;;;18.70;51.00;;;;;;5035506;27;94995;-61
2023/09/29 12:30:01;;;;;;;;;;;18.70;51.10;;;;;;5037805;28;93305;-60
2023/09/29 12:32:27;;;;;;;;;;;18.70;51.20;;;;;;5040419;27;93076;-60
2023/09/29 12:34:52;;;;;;;;;;;18.70;50.80;;;;;;5043004;28;93234;-60
2023/09/29 12:37:18;;;;;;;;;;;18.70;51.10;;;;;;5036803;27;93731;-60
2023/09/29 12:39:45;;;;;;;;;;;18.70;50.70;;;;;;5038431;27;92507;-60
2023/09/29 12:42:10;;;;;;;;;;;18.80;50.90;;;;;;5040097;27;92163;-60
2023/09/29 12:44:36;;;;;;;;;;;18.80;51.10;;;;;;5040324;27;92283;-60
2023/09/29 12:47:01;;;;;;;;;;;18.80;50.90;;;;;;5037617;27;93857;-60
2023/09/29 12:49:27;;;;;;;;;;;18.80;51.10;;;;;;5036102;28;92314;-60
2023/09/29 12:51:52;;;;;;;;;;;18.80;50.90;;;;;;5039729;28;92567;-60
2023/09/29 12:54:18;;;;;;;;;;;18.90;50.90;;;;;;5042552;28;92579;-60
2023/09/29 12:56:43;;;;;;;;;;;18.80;50.80;;;;;;5037815;27;92140;-60
2023/09/29 12:59:09;;;;;;;;;;;18.80;50.90;;;;;;5036057;27;93570;-60
2023/09/29 13:01:35;;;;;;;;;;;18.80;50.80;;;;;;5038788;27;93447;-60
2023/09/29 13:04:00;;;;;;;;;;;18.80;50.90;;;;;;5039598;28;93321;-60
2023/09/29 13:06:26;;;;;;;;;;;18.90;50.90;;;;;;5038763;27;93199;-60
2023/09/29 13:08:52;;;;;;;;;;;18.90;50.90;;;;;;5039202;27;92419;-59
2023/09/29 13:11:17;;;;;;;;;;;18.90;50.90;;;;;;5040117;27;92530;-60
2023/09/29 13:13:43;;;;;;;;;;;18.90;50.90;;;;;;5037839;27;93264;-61
2023/09/29 13:16:10;;;;;;;;;;;18.90;50.90;;;;;;5040865;27;92479;-60
2023/09/29 13:18:36;;;;;;;;;;;18.90;50.80;;;;;;5036955;28;93612;-60
2023/09/29 13:21:01;;;;;;;;;;;18.90;50.70;;;;;;5039926;28;92740;-60
2023/09/29 13:23:27;;;;;;;;;;;18.90;50.60;;;;;;5039852;27;93051;-60
2023/09/29 13:25:52;;;;;;;;;;;18.90;50.80;;;;;;5034464;27;94343;-60
2023/09/29 13:28:18;;;;;;;;;;;19.00;50.90;;;;;;5039572;28;92285;-60
2023/09/29 13:30:45;;;;;;;;;;;19.00;50.40;;;;;;5039857;27;92678;-58
2023/09/29 13:33:11;;;;;;;;;;;19.00;50.90;;;;;;5037228;27;93549;-60
2023/09/29 13:35:37;;;;;;;;;;;19.00;50.80;;;;;;5038634;27;92200;-60
2023/09/29 13:38:04;;;;;;;;;;;19.00;50.90;;;;;;5041557;27;92564;-60
2023/09/29 13:40:30;;;;;;;;;;;19.00;50.80;;;;;;5039097;27;92211;-60
2023/09/29 13:42:55;;;;;;;;;;;19.00;51.00;;;;;;5040786;27;92605;-60
2023/09/29 13:45:22;;;;;;;;;;;19.10;50.90;;;;;;5035817;27;94378;-60
2023/09/29 13:47:47;;;;;;;;;;;19.10;50.90;;;;;;5038969;28;92115;-60
2023/09/29 13:50:13;;;;;;;;;;;19.10;50.90;;;;;;5038064;27;93082;-59
2023/09/29 13:52:40;;;;;;;;;;;19.10;51.00;;;;;;5036317;27;93306;-59
2023/09/29 13:55:06;;;;;;;;;;;19.10;51.10;;;;;;5036543;27;92078;-60
2023/09/29 13:57:32;;;;;;;;;;;19.10;50.90;;;;;;5039348;28;92220;-60
2023/09/29 13:59:58;;;;;;;;;;;19.10;51.00;;;;;;5041239;27;93417;-60
2023/09/29 14:02:23;;;;;;;;;;;19.10;51.50;;;;;;5036897;27;92463;-60
2023/09/29 14:04:49;;;;;;;;;;;19.20;50.90;;;;;;5035935;27;94773;-59
2023/09/29 14:07:14;;;;;;;;;;;19.20;51.00;;;;;;5039281;27;91419;-58
2023/09/29 14:09:40;;;;;;;;;;;19.10;51.10;;;;;;5037787;27;93092;-60
2023/09/29 14:12:08;;;;;;;;;;;19.20;50.90;;;;;;5036589;27;93315;-60